Gaskill, New York
Current Conditions -  °F | °C
As of 2:53 AM on Thursday 27 Nov 2014 (Local Time) from KBGM Reporting Station
Haze Haze  
Wind Chill: 30°   Ceiling: 600
Heat Index: 36°   Visibility: 5mi
Dew Point: 24°   Wind: 7mph
Humidity: 62%   Direction: 320°NW
Pressure: 29.9"   Gusts: NA
Location:  42.1349°N, 76.2495°W
Report Text: KBGM 270753Z AUTO 32006KT 5SM HZ BKN006 OVC029 02/M04 A2990 RMK AO2 SNE51 SLP141 P0000 T00221044 $
Loading
Personal Weather Stations






























Interactive Weather Map New forecast layout! Learn more

10-Day Weather Forecast

Advertisements
Track Severe Weather on mobile